<?xml version="1.0" encoding="UTF-8" standalone="no" ?>
<gpx xmlns="http://www.topografix.com/GPX/1/1" xmlns:xsi="http://www.w3.org/2001/XMLSchema-instance" xsi:schemaLocation="http://www.topografix.com/GPX/1/1 http://www.topografix.com/GPX/1/1/gpx.xsd" version="1.1" creator="VisuGPX - https://www.visugpx.com">
  <metadata>
    <name>10306212-La Romaine</name>
  </metadata>
  <trk>
    <name><![CDATA[10306212-La Romaine]]></name>
    <trkseg>
      <trkpt lat="43.817" lon="6.09202">
        <ele>525</ele>
        <time>2019-07-31T12:50:22Z</time>
      </trkpt>
      <trkpt lat="43.81701" lon="6.09194">
        <ele>525</ele>
        <time>2019-07-31T12:50:23Z</time>
      </trkpt>
      <trkpt lat="43.81738" lon="6.09208">
        <ele>528</ele>
        <time>2019-07-31T12:50:30Z</time>
      </trkpt>
      <trkpt lat="43.81793" lon="6.0905">
        <ele>526</ele>
        <time>2019-07-31T12:50:52Z</time>
      </trkpt>
      <trkpt lat="43.81846" lon="6.09061">
        <ele>528</ele>
        <time>2019-07-31T12:51:02Z</time>
      </trkpt>
      <trkpt lat="43.81857" lon="6.09055">
        <ele>528</ele>
        <time>2019-07-31T12:51:04Z</time>
      </trkpt>
      <trkpt lat="43.81858" lon="6.09038">
        <ele>527</ele>
        <time>2019-07-31T12:51:06Z</time>
      </trkpt>
      <trkpt lat="43.81847" lon="6.09003">
        <ele>525</ele>
        <time>2019-07-31T12:51:11Z</time>
      </trkpt>
      <trkpt lat="43.81849" lon="6.08982">
        <ele>524</ele>
        <time>2019-07-31T12:51:14Z</time>
      </trkpt>
      <trkpt lat="43.81853" lon="6.08974">
        <ele>524</ele>
        <time>2019-07-31T12:51:15Z</time>
      </trkpt>
      <trkpt lat="43.81942" lon="6.0887">
        <ele>522</ele>
        <time>2019-07-31T12:51:36Z</time>
      </trkpt>
      <trkpt lat="43.81976" lon="6.08835">
        <ele>524</ele>
        <time>2019-07-31T12:51:43Z</time>
      </trkpt>
      <trkpt lat="43.81986" lon="6.08834">
        <ele>524</ele>
        <time>2019-07-31T12:51:45Z</time>
      </trkpt>
      <trkpt lat="43.81991" lon="6.08836">
        <ele>524</ele>
        <time>2019-07-31T12:51:46Z</time>
      </trkpt>
      <trkpt lat="43.82061" lon="6.08952">
        <ele>527</ele>
        <time>2019-07-31T12:52:05Z</time>
      </trkpt>
      <trkpt lat="43.82094" lon="6.09023">
        <ele>526</ele>
        <time>2019-07-31T12:52:16Z</time>
      </trkpt>
      <trkpt lat="43.82111" lon="6.09045">
        <ele>526</ele>
        <time>2019-07-31T12:52:20Z</time>
      </trkpt>
      <trkpt lat="43.82169" lon="6.09109">
        <ele>527</ele>
        <time>2019-07-31T12:52:34Z</time>
      </trkpt>
      <trkpt lat="43.82273" lon="6.09171">
        <ele>528</ele>
        <time>2019-07-31T12:52:54Z</time>
      </trkpt>
      <trkpt lat="43.82301" lon="6.09191">
        <ele>528</ele>
        <time>2019-07-31T12:52:59Z</time>
      </trkpt>
      <trkpt lat="43.82314" lon="6.09207">
        <ele>528</ele>
        <time>2019-07-31T12:53:02Z</time>
      </trkpt>
      <trkpt lat="43.82349" lon="6.09286">
        <ele>530</ele>
        <time>2019-07-31T12:53:14Z</time>
      </trkpt>
      <trkpt lat="43.82368" lon="6.09314">
        <ele>532</ele>
        <time>2019-07-31T12:53:19Z</time>
      </trkpt>
      <trkpt lat="43.82397" lon="6.09345">
        <ele>533</ele>
        <time>2019-07-31T12:53:26Z</time>
      </trkpt>
      <trkpt lat="43.82413" lon="6.09358">
        <ele>533</ele>
        <time>2019-07-31T12:53:29Z</time>
      </trkpt>
      <trkpt lat="43.8249" lon="6.09402">
        <ele>534</ele>
        <time>2019-07-31T12:53:44Z</time>
      </trkpt>
      <trkpt lat="43.82526" lon="6.09429">
        <ele>535</ele>
        <time>2019-07-31T12:53:51Z</time>
      </trkpt>
      <trkpt lat="43.82586" lon="6.09497">
        <ele>534</ele>
        <time>2019-07-31T12:54:05Z</time>
      </trkpt>
      <trkpt lat="43.82621" lon="6.09523">
        <ele>538</ele>
        <time>2019-07-31T12:54:12Z</time>
      </trkpt>
      <trkpt lat="43.82649" lon="6.09535">
        <ele>540</ele>
        <time>2019-07-31T12:54:17Z</time>
      </trkpt>
      <trkpt lat="43.827" lon="6.09547">
        <ele>544</ele>
        <time>2019-07-31T12:54:27Z</time>
      </trkpt>
      <trkpt lat="43.82724" lon="6.09544">
        <ele>546</ele>
        <time>2019-07-31T12:54:31Z</time>
      </trkpt>
      <trkpt lat="43.82732" lon="6.09546">
        <ele>547</ele>
        <time>2019-07-31T12:54:32Z</time>
      </trkpt>
      <trkpt lat="43.8275" lon="6.09562">
        <ele>547</ele>
        <time>2019-07-31T12:54:36Z</time>
      </trkpt>
      <trkpt lat="43.82757" lon="6.09575">
        <ele>546</ele>
        <time>2019-07-31T12:54:38Z</time>
      </trkpt>
      <trkpt lat="43.82838" lon="6.09659">
        <ele>550</ele>
        <time>2019-07-31T12:54:56Z</time>
      </trkpt>
      <trkpt lat="43.82855" lon="6.09673">
        <ele>550</ele>
        <time>2019-07-31T12:55:00Z</time>
      </trkpt>
      <trkpt lat="43.83" lon="6.09769">
        <ele>553</ele>
        <time>2019-07-31T12:55:28Z</time>
      </trkpt>
      <trkpt lat="43.83027" lon="6.09791">
        <ele>556</ele>
        <time>2019-07-31T12:55:34Z</time>
      </trkpt>
      <trkpt lat="43.83074" lon="6.09839">
        <ele>557</ele>
        <time>2019-07-31T12:55:44Z</time>
      </trkpt>
      <trkpt lat="43.83137" lon="6.09918">
        <ele>557</ele>
        <time>2019-07-31T12:55:59Z</time>
      </trkpt>
      <trkpt lat="43.83155" lon="6.09937">
        <ele>557</ele>
        <time>2019-07-31T12:56:03Z</time>
      </trkpt>
      <trkpt lat="43.83204" lon="6.09979">
        <ele>559</ele>
        <time>2019-07-31T12:56:14Z</time>
      </trkpt>
      <trkpt lat="43.83262" lon="6.10022">
        <ele>562</ele>
        <time>2019-07-31T12:56:25Z</time>
      </trkpt>
      <trkpt lat="43.833" lon="6.10059">
        <ele>566</ele>
        <time>2019-07-31T12:56:34Z</time>
      </trkpt>
      <trkpt lat="43.83334" lon="6.10116">
        <ele>565</ele>
        <time>2019-07-31T12:56:43Z</time>
      </trkpt>
      <trkpt lat="43.83347" lon="6.10148">
        <ele>564</ele>
        <time>2019-07-31T12:56:48Z</time>
      </trkpt>
      <trkpt lat="43.83357" lon="6.10176">
        <ele>564</ele>
        <time>2019-07-31T12:56:52Z</time>
      </trkpt>
      <trkpt lat="43.83389" lon="6.10294">
        <ele>562</ele>
        <time>2019-07-31T12:57:08Z</time>
      </trkpt>
      <trkpt lat="43.83411" lon="6.10341">
        <ele>559</ele>
        <time>2019-07-31T12:57:15Z</time>
      </trkpt>
      <trkpt lat="43.83433" lon="6.10372">
        <ele>560</ele>
        <time>2019-07-31T12:57:21Z</time>
      </trkpt>
      <trkpt lat="43.83458" lon="6.10401">
        <ele>561</ele>
        <time>2019-07-31T12:57:27Z</time>
      </trkpt>
      <trkpt lat="43.83538" lon="6.10489">
        <ele>562</ele>
        <time>2019-07-31T12:57:45Z</time>
      </trkpt>
      <trkpt lat="43.83593" lon="6.10555">
        <ele>563</ele>
        <time>2019-07-31T12:57:58Z</time>
      </trkpt>
      <trkpt lat="43.83638" lon="6.10602">
        <ele>564</ele>
        <time>2019-07-31T12:58:08Z</time>
      </trkpt>
      <trkpt lat="43.83678" lon="6.10628">
        <ele>566</ele>
        <time>2019-07-31T12:58:16Z</time>
      </trkpt>
      <trkpt lat="43.83711" lon="6.10639">
        <ele>567</ele>
        <time>2019-07-31T12:58:22Z</time>
      </trkpt>
      <trkpt lat="43.83749" lon="6.10637">
        <ele>569</ele>
        <time>2019-07-31T12:58:28Z</time>
      </trkpt>
      <trkpt lat="43.83786" lon="6.10621">
        <ele>573</ele>
        <time>2019-07-31T12:58:35Z</time>
      </trkpt>
      <trkpt lat="43.83808" lon="6.10604">
        <ele>576</ele>
        <time>2019-07-31T12:58:40Z</time>
      </trkpt>
      <trkpt lat="43.83867" lon="6.10547">
        <ele>584</ele>
        <time>2019-07-31T12:58:52Z</time>
      </trkpt>
      <trkpt lat="43.8389" lon="6.10531">
        <ele>586</ele>
        <time>2019-07-31T12:58:57Z</time>
      </trkpt>
      <trkpt lat="43.83922" lon="6.10514">
        <ele>588</ele>
        <time>2019-07-31T12:59:03Z</time>
      </trkpt>
      <trkpt lat="43.83955" lon="6.10507">
        <ele>590</ele>
        <time>2019-07-31T12:59:09Z</time>
      </trkpt>
      <trkpt lat="43.84" lon="6.10507">
        <ele>594</ele>
        <time>2019-07-31T12:59:17Z</time>
      </trkpt>
      <trkpt lat="43.84027" lon="6.10511">
        <ele>596</ele>
        <time>2019-07-31T12:59:22Z</time>
      </trkpt>
      <trkpt lat="43.8406" lon="6.10523">
        <ele>599</ele>
        <time>2019-07-31T12:59:28Z</time>
      </trkpt>
      <trkpt lat="43.8409" lon="6.10536">
        <ele>602</ele>
        <time>2019-07-31T12:59:34Z</time>
      </trkpt>
      <trkpt lat="43.84093" lon="6.1054">
        <ele>603</ele>
        <time>2019-07-31T12:59:34Z</time>
      </trkpt>
      <trkpt lat="43.84091" lon="6.10557">
        <ele>604</ele>
        <time>2019-07-31T12:59:37Z</time>
      </trkpt>
      <trkpt lat="43.84087" lon="6.10561">
        <ele>605</ele>
        <time>2019-07-31T12:59:37Z</time>
      </trkpt>
      <trkpt lat="43.84076" lon="6.10563">
        <ele>604</ele>
        <time>2019-07-31T12:59:39Z</time>
      </trkpt>
      <trkpt lat="43.8404" lon="6.10554">
        <ele>602</ele>
        <time>2019-07-31T12:59:46Z</time>
      </trkpt>
      <trkpt lat="43.84013" lon="6.1055">
        <ele>600</ele>
        <time>2019-07-31T12:59:51Z</time>
      </trkpt>
      <trkpt lat="43.83985" lon="6.10556">
        <ele>598</ele>
        <time>2019-07-31T12:59:56Z</time>
      </trkpt>
      <trkpt lat="43.83947" lon="6.10583">
        <ele>597</ele>
        <time>2019-07-31T13:00:03Z</time>
      </trkpt>
      <trkpt lat="43.83943" lon="6.10604">
        <ele>597</ele>
        <time>2019-07-31T13:00:06Z</time>
      </trkpt>
      <trkpt lat="43.83947" lon="6.10617">
        <ele>597</ele>
        <time>2019-07-31T13:00:08Z</time>
      </trkpt>
      <trkpt lat="43.83956" lon="6.10623">
        <ele>599</ele>
        <time>2019-07-31T13:00:10Z</time>
      </trkpt>
      <trkpt lat="43.83964" lon="6.10624">
        <ele>600</ele>
        <time>2019-07-31T13:00:11Z</time>
      </trkpt>
      <trkpt lat="43.84009" lon="6.10608">
        <ele>605</ele>
        <time>2019-07-31T13:00:19Z</time>
      </trkpt>
      <trkpt lat="43.84062" lon="6.10599">
        <ele>608</ele>
        <time>2019-07-31T13:00:29Z</time>
      </trkpt>
      <trkpt lat="43.84087" lon="6.10604">
        <ele>611</ele>
        <time>2019-07-31T13:00:33Z</time>
      </trkpt>
      <trkpt lat="43.84103" lon="6.1061">
        <ele>611</ele>
        <time>2019-07-31T13:00:36Z</time>
      </trkpt>
      <trkpt lat="43.84175" lon="6.10663">
        <ele>615</ele>
        <time>2019-07-31T13:00:51Z</time>
      </trkpt>
      <trkpt lat="43.8419" lon="6.1068">
        <ele>617</ele>
        <time>2019-07-31T13:00:54Z</time>
      </trkpt>
      <trkpt lat="43.84205" lon="6.10704">
        <ele>619</ele>
        <time>2019-07-31T13:00:58Z</time>
      </trkpt>
      <trkpt lat="43.84225" lon="6.10757">
        <ele>622</ele>
        <time>2019-07-31T13:01:06Z</time>
      </trkpt>
      <trkpt lat="43.84247" lon="6.108">
        <ele>625</ele>
        <time>2019-07-31T13:01:13Z</time>
      </trkpt>
      <trkpt lat="43.84271" lon="6.10821">
        <ele>628</ele>
        <time>2019-07-31T13:01:18Z</time>
      </trkpt>
      <trkpt lat="43.84292" lon="6.10828">
        <ele>629</ele>
        <time>2019-07-31T13:01:22Z</time>
      </trkpt>
      <trkpt lat="43.84319" lon="6.10831">
        <ele>629</ele>
        <time>2019-07-31T13:01:27Z</time>
      </trkpt>
      <trkpt lat="43.84339" lon="6.10825">
        <ele>629</ele>
        <time>2019-07-31T13:01:30Z</time>
      </trkpt>
      <trkpt lat="43.84375" lon="6.10797">
        <ele>630</ele>
        <time>2019-07-31T13:01:38Z</time>
      </trkpt>
      <trkpt lat="43.84416" lon="6.10779">
        <ele>631</ele>
        <time>2019-07-31T13:01:45Z</time>
      </trkpt>
      <trkpt lat="43.84437" lon="6.10777">
        <ele>632</ele>
        <time>2019-07-31T13:01:49Z</time>
      </trkpt>
      <trkpt lat="43.84458" lon="6.1078">
        <ele>632</ele>
        <time>2019-07-31T13:01:53Z</time>
      </trkpt>
      <trkpt lat="43.84486" lon="6.10794">
        <ele>634</ele>
        <time>2019-07-31T13:01:58Z</time>
      </trkpt>
      <trkpt lat="43.84689" lon="6.10942">
        <ele>646</ele>
        <time>2019-07-31T13:02:39Z</time>
      </trkpt>
      <trkpt lat="43.84739" lon="6.10984">
        <ele>650</ele>
        <time>2019-07-31T13:02:49Z</time>
      </trkpt>
      <trkpt lat="43.84782" lon="6.11048">
        <ele>653</ele>
        <time>2019-07-31T13:03:00Z</time>
      </trkpt>
      <trkpt lat="43.84825" lon="6.11129">
        <ele>653</ele>
        <time>2019-07-31T13:03:13Z</time>
      </trkpt>
      <trkpt lat="43.84857" lon="6.1115">
        <ele>655</ele>
        <time>2019-07-31T13:03:20Z</time>
      </trkpt>
      <trkpt lat="43.84903" lon="6.11172">
        <ele>658</ele>
        <time>2019-07-31T13:03:28Z</time>
      </trkpt>
      <trkpt lat="43.85048" lon="6.11191">
        <ele>663</ele>
        <time>2019-07-31T13:03:54Z</time>
      </trkpt>
      <trkpt lat="43.85083" lon="6.11214">
        <ele>664</ele>
        <time>2019-07-31T13:04:01Z</time>
      </trkpt>
      <trkpt lat="43.85131" lon="6.1127">
        <ele>667</ele>
        <time>2019-07-31T13:04:12Z</time>
      </trkpt>
      <trkpt lat="43.85186" lon="6.1136">
        <ele>671</ele>
        <time>2019-07-31T13:04:27Z</time>
      </trkpt>
      <trkpt lat="43.85286" lon="6.11564">
        <ele>672</ele>
        <time>2019-07-31T13:04:59Z</time>
      </trkpt>
      <trkpt lat="43.85328" lon="6.11627">
        <ele>672</ele>
        <time>2019-07-31T13:05:10Z</time>
      </trkpt>
      <trkpt lat="43.85371" lon="6.11678">
        <ele>673</ele>
        <time>2019-07-31T13:05:20Z</time>
      </trkpt>
      <trkpt lat="43.85775" lon="6.12071">
        <ele>682</ele>
        <time>2019-07-31T13:06:48Z</time>
      </trkpt>
      <trkpt lat="43.85786" lon="6.12089">
        <ele>683</ele>
        <time>2019-07-31T13:06:51Z</time>
      </trkpt>
      <trkpt lat="43.85795" lon="6.12111">
        <ele>683</ele>
        <time>2019-07-31T13:06:54Z</time>
      </trkpt>
      <trkpt lat="43.85837" lon="6.12235">
        <ele>684</ele>
        <time>2019-07-31T13:07:12Z</time>
      </trkpt>
      <trkpt lat="43.85855" lon="6.12271">
        <ele>684</ele>
        <time>2019-07-31T13:07:17Z</time>
      </trkpt>
      <trkpt lat="43.85958" lon="6.12401">
        <ele>683</ele>
        <time>2019-07-31T13:07:42Z</time>
      </trkpt>
      <trkpt lat="43.86025" lon="6.12478">
        <ele>687</ele>
        <time>2019-07-31T13:07:58Z</time>
      </trkpt>
      <trkpt lat="43.8605" lon="6.12503">
        <ele>688</ele>
        <time>2019-07-31T13:08:03Z</time>
      </trkpt>
      <trkpt lat="43.86126" lon="6.12554">
        <ele>690</ele>
        <time>2019-07-31T13:08:18Z</time>
      </trkpt>
      <trkpt lat="43.86258" lon="6.12652">
        <ele>695</ele>
        <time>2019-07-31T13:08:45Z</time>
      </trkpt>
      <trkpt lat="43.86442" lon="6.12784">
        <ele>698</ele>
        <time>2019-07-31T13:09:22Z</time>
      </trkpt>
      <trkpt lat="43.86435" lon="6.12797">
        <ele>698</ele>
        <time>2019-07-31T13:09:24Z</time>
      </trkpt>
      <trkpt lat="43.86418" lon="6.12806">
        <ele>697</ele>
        <time>2019-07-31T13:09:27Z</time>
      </trkpt>
      <trkpt lat="43.864" lon="6.1283">
        <ele>696</ele>
        <time>2019-07-31T13:09:31Z</time>
      </trkpt>
      <trkpt lat="43.86386" lon="6.12866">
        <ele>693</ele>
        <time>2019-07-31T13:09:37Z</time>
      </trkpt>
      <trkpt lat="43.86386" lon="6.12875">
        <ele>693</ele>
        <time>2019-07-31T13:09:38Z</time>
      </trkpt>
      <trkpt lat="43.8639" lon="6.12887">
        <ele>692</ele>
        <time>2019-07-31T13:09:40Z</time>
      </trkpt>
      <trkpt lat="43.86428" lon="6.12937">
        <ele>691</ele>
        <time>2019-07-31T13:09:49Z</time>
      </trkpt>
      <trkpt lat="43.86468" lon="6.12983">
        <ele>690</ele>
        <time>2019-07-31T13:09:58Z</time>
      </trkpt>
      <trkpt lat="43.86494" lon="6.13027">
        <ele>688</ele>
        <time>2019-07-31T13:10:05Z</time>
      </trkpt>
      <trkpt lat="43.86522" lon="6.13093">
        <ele>685</ele>
        <time>2019-07-31T13:10:15Z</time>
      </trkpt>
      <trkpt lat="43.86527" lon="6.1312">
        <ele>683</ele>
        <time>2019-07-31T13:10:19Z</time>
      </trkpt>
      <trkpt lat="43.86525" lon="6.13161">
        <ele>679</ele>
        <time>2019-07-31T13:10:24Z</time>
      </trkpt>
      <trkpt lat="43.86527" lon="6.13186">
        <ele>677</ele>
        <time>2019-07-31T13:10:27Z</time>
      </trkpt>
      <trkpt lat="43.86535" lon="6.13206">
        <ele>677</ele>
        <time>2019-07-31T13:10:30Z</time>
      </trkpt>
      <trkpt lat="43.86548" lon="6.13224">
        <ele>678</ele>
        <time>2019-07-31T13:10:34Z</time>
      </trkpt>
      <trkpt lat="43.8657" lon="6.13248">
        <ele>678</ele>
        <time>2019-07-31T13:10:38Z</time>
      </trkpt>
      <trkpt lat="43.86612" lon="6.13283">
        <ele>675</ele>
        <time>2019-07-31T13:10:47Z</time>
      </trkpt>
      <trkpt lat="43.8667" lon="6.13325">
        <ele>669</ele>
        <time>2019-07-31T13:10:59Z</time>
      </trkpt>
      <trkpt lat="43.86723" lon="6.13346">
        <ele>668</ele>
        <time>2019-07-31T13:11:09Z</time>
      </trkpt>
      <trkpt lat="43.86743" lon="6.13359">
        <ele>667</ele>
        <time>2019-07-31T13:11:13Z</time>
      </trkpt>
      <trkpt lat="43.86793" lon="6.13429">
        <ele>664</ele>
        <time>2019-07-31T13:11:25Z</time>
      </trkpt>
      <trkpt lat="43.86801" lon="6.13446">
        <ele>664</ele>
        <time>2019-07-31T13:11:28Z</time>
      </trkpt>
      <trkpt lat="43.86805" lon="6.13468">
        <ele>663</ele>
        <time>2019-07-31T13:11:31Z</time>
      </trkpt>
      <trkpt lat="43.86797" lon="6.13489">
        <ele>661</ele>
        <time>2019-07-31T13:11:34Z</time>
      </trkpt>
      <trkpt lat="43.8679" lon="6.135">
        <ele>660</ele>
        <time>2019-07-31T13:11:36Z</time>
      </trkpt>
      <trkpt lat="43.8676" lon="6.13532">
        <ele>657</ele>
        <time>2019-07-31T13:11:42Z</time>
      </trkpt>
      <trkpt lat="43.86743" lon="6.13562">
        <ele>655</ele>
        <time>2019-07-31T13:11:47Z</time>
      </trkpt>
      <trkpt lat="43.8674" lon="6.13571">
        <ele>655</ele>
        <time>2019-07-31T13:11:49Z</time>
      </trkpt>
      <trkpt lat="43.86734" lon="6.13621">
        <ele>653</ele>
        <time>2019-07-31T13:11:55Z</time>
      </trkpt>
      <trkpt lat="43.8673" lon="6.13632">
        <ele>653</ele>
        <time>2019-07-31T13:11:57Z</time>
      </trkpt>
      <trkpt lat="43.86722" lon="6.1364">
        <ele>652</ele>
        <time>2019-07-31T13:11:58Z</time>
      </trkpt>
      <trkpt lat="43.86701" lon="6.13642">
        <ele>649</ele>
        <time>2019-07-31T13:12:02Z</time>
      </trkpt>
      <trkpt lat="43.86436" lon="6.13608">
        <ele>636</ele>
        <time>2019-07-31T13:12:50Z</time>
      </trkpt>
      <trkpt lat="43.86416" lon="6.13611">
        <ele>635</ele>
        <time>2019-07-31T13:12:53Z</time>
      </trkpt>
      <trkpt lat="43.86395" lon="6.13618">
        <ele>633</ele>
        <time>2019-07-31T13:12:57Z</time>
      </trkpt>
      <trkpt lat="43.86331" lon="6.13654">
        <ele>628</ele>
        <time>2019-07-31T13:13:09Z</time>
      </trkpt>
      <trkpt lat="43.86313" lon="6.13661">
        <ele>626</ele>
        <time>2019-07-31T13:13:13Z</time>
      </trkpt>
      <trkpt lat="43.86294" lon="6.13661">
        <ele>625</ele>
        <time>2019-07-31T13:13:16Z</time>
      </trkpt>
      <trkpt lat="43.86276" lon="6.13655">
        <ele>624</ele>
        <time>2019-07-31T13:13:19Z</time>
      </trkpt>
      <trkpt lat="43.86231" lon="6.13617">
        <ele>623</ele>
        <time>2019-07-31T13:13:29Z</time>
      </trkpt>
      <trkpt lat="43.86221" lon="6.13615">
        <ele>622</ele>
        <time>2019-07-31T13:13:30Z</time>
      </trkpt>
      <trkpt lat="43.8621" lon="6.13618">
        <ele>621</ele>
        <time>2019-07-31T13:13:32Z</time>
      </trkpt>
      <trkpt lat="43.86203" lon="6.13623">
        <ele>621</ele>
        <time>2019-07-31T13:13:34Z</time>
      </trkpt>
      <trkpt lat="43.86151" lon="6.13693">
        <ele>618</ele>
        <time>2019-07-31T13:13:47Z</time>
      </trkpt>
      <trkpt lat="43.86086" lon="6.13772">
        <ele>619</ele>
        <time>2019-07-31T13:14:02Z</time>
      </trkpt>
      <trkpt lat="43.86074" lon="6.1378">
        <ele>620</ele>
        <time>2019-07-31T13:14:04Z</time>
      </trkpt>
      <trkpt lat="43.86058" lon="6.13783">
        <ele>620</ele>
        <time>2019-07-31T13:14:07Z</time>
      </trkpt>
      <trkpt lat="43.85997" lon="6.13778">
        <ele>621</ele>
        <time>2019-07-31T13:14:18Z</time>
      </trkpt>
      <trkpt lat="43.85967" lon="6.13779">
        <ele>622</ele>
        <time>2019-07-31T13:14:24Z</time>
      </trkpt>
      <trkpt lat="43.85949" lon="6.13789">
        <ele>623</ele>
        <time>2019-07-31T13:14:27Z</time>
      </trkpt>
      <trkpt lat="43.85908" lon="6.13844">
        <ele>626</ele>
        <time>2019-07-31T13:14:37Z</time>
      </trkpt>
      <trkpt lat="43.85872" lon="6.13881">
        <ele>626</ele>
        <time>2019-07-31T13:14:45Z</time>
      </trkpt>
      <trkpt lat="43.85839" lon="6.13909">
        <ele>628</ele>
        <time>2019-07-31T13:14:52Z</time>
      </trkpt>
      <trkpt lat="43.85782" lon="6.13947">
        <ele>632</ele>
        <time>2019-07-31T13:15:03Z</time>
      </trkpt>
      <trkpt lat="43.85761" lon="6.13966">
        <ele>632</ele>
        <time>2019-07-31T13:15:08Z</time>
      </trkpt>
      <trkpt lat="43.85712" lon="6.14019">
        <ele>637</ele>
        <time>2019-07-31T13:15:19Z</time>
      </trkpt>
      <trkpt lat="43.85688" lon="6.14035">
        <ele>640</ele>
        <time>2019-07-31T13:15:23Z</time>
      </trkpt>
      <trkpt lat="43.85592" lon="6.14069">
        <ele>645</ele>
        <time>2019-07-31T13:15:41Z</time>
      </trkpt>
      <trkpt lat="43.85568" lon="6.14074">
        <ele>645</ele>
        <time>2019-07-31T13:15:45Z</time>
      </trkpt>
      <trkpt lat="43.85534" lon="6.14071">
        <ele>646</ele>
        <time>2019-07-31T13:15:51Z</time>
      </trkpt>
      <trkpt lat="43.85345" lon="6.14028">
        <ele>652</ele>
        <time>2019-07-31T13:16:26Z</time>
      </trkpt>
      <trkpt lat="43.85314" lon="6.14026">
        <ele>653</ele>
        <time>2019-07-31T13:16:31Z</time>
      </trkpt>
      <trkpt lat="43.85298" lon="6.14037">
        <ele>654</ele>
        <time>2019-07-31T13:16:34Z</time>
      </trkpt>
      <trkpt lat="43.85291" lon="6.14044">
        <ele>654</ele>
        <time>2019-07-31T13:16:36Z</time>
      </trkpt>
      <trkpt lat="43.85238" lon="6.14121">
        <ele>659</ele>
        <time>2019-07-31T13:16:49Z</time>
      </trkpt>
      <trkpt lat="43.85171" lon="6.14194">
        <ele>662</ele>
        <time>2019-07-31T13:17:05Z</time>
      </trkpt>
      <trkpt lat="43.85111" lon="6.14276">
        <ele>665</ele>
        <time>2019-07-31T13:17:20Z</time>
      </trkpt>
      <trkpt lat="43.85072" lon="6.14313">
        <ele>665</ele>
        <time>2019-07-31T13:17:28Z</time>
      </trkpt>
      <trkpt lat="43.85047" lon="6.14346">
        <ele>664</ele>
        <time>2019-07-31T13:17:34Z</time>
      </trkpt>
      <trkpt lat="43.85028" lon="6.1439">
        <ele>661</ele>
        <time>2019-07-31T13:17:41Z</time>
      </trkpt>
      <trkpt lat="43.85023" lon="6.14435">
        <ele>660</ele>
        <time>2019-07-31T13:17:47Z</time>
      </trkpt>
      <trkpt lat="43.85011" lon="6.14614">
        <ele>654</ele>
        <time>2019-07-31T13:18:10Z</time>
      </trkpt>
      <trkpt lat="43.85021" lon="6.14652">
        <ele>651</ele>
        <time>2019-07-31T13:18:15Z</time>
      </trkpt>
      <trkpt lat="43.85041" lon="6.1468">
        <ele>651</ele>
        <time>2019-07-31T13:18:20Z</time>
      </trkpt>
      <trkpt lat="43.85046" lon="6.147">
        <ele>651</ele>
        <time>2019-07-31T13:18:23Z</time>
      </trkpt>
      <trkpt lat="43.85046" lon="6.14724">
        <ele>650</ele>
        <time>2019-07-31T13:18:26Z</time>
      </trkpt>
      <trkpt lat="43.85039" lon="6.14751">
        <ele>649</ele>
        <time>2019-07-31T13:18:29Z</time>
      </trkpt>
      <trkpt lat="43.85007" lon="6.14845">
        <ele>647</ele>
        <time>2019-07-31T13:18:43Z</time>
      </trkpt>
      <trkpt lat="43.85031" lon="6.15039">
        <ele>654</ele>
        <time>2019-07-31T13:19:08Z</time>
      </trkpt>
      <trkpt lat="43.85031" lon="6.15062">
        <ele>656</ele>
        <time>2019-07-31T13:19:11Z</time>
      </trkpt>
      <trkpt lat="43.85028" lon="6.15073">
        <ele>657</ele>
        <time>2019-07-31T13:19:12Z</time>
      </trkpt>
      <trkpt lat="43.85023" lon="6.15081">
        <ele>658</ele>
        <time>2019-07-31T13:19:14Z</time>
      </trkpt>
      <trkpt lat="43.85009" lon="6.1509">
        <ele>660</ele>
        <time>2019-07-31T13:19:17Z</time>
      </trkpt>
      <trkpt lat="43.85" lon="6.15093">
        <ele>661</ele>
        <time>2019-07-31T13:19:18Z</time>
      </trkpt>
      <trkpt lat="43.84821" lon="6.15124">
        <ele>661</ele>
        <time>2019-07-31T13:19:50Z</time>
      </trkpt>
      <trkpt lat="43.84717" lon="6.15147">
        <ele>656</ele>
        <time>2019-07-31T13:20:09Z</time>
      </trkpt>
      <trkpt lat="43.84696" lon="6.15156">
        <ele>655</ele>
        <time>2019-07-31T13:20:13Z</time>
      </trkpt>
      <trkpt lat="43.84685" lon="6.15166">
        <ele>654</ele>
        <time>2019-07-31T13:20:15Z</time>
      </trkpt>
      <trkpt lat="43.84658" lon="6.15215">
        <ele>654</ele>
        <time>2019-07-31T13:20:23Z</time>
      </trkpt>
      <trkpt lat="43.84602" lon="6.15328">
        <ele>649</ele>
        <time>2019-07-31T13:20:41Z</time>
      </trkpt>
      <trkpt lat="43.84593" lon="6.15357">
        <ele>649</ele>
        <time>2019-07-31T13:20:45Z</time>
      </trkpt>
      <trkpt lat="43.84579" lon="6.15434">
        <ele>649</ele>
        <time>2019-07-31T13:20:55Z</time>
      </trkpt>
      <trkpt lat="43.84517" lon="6.15594">
        <ele>648</ele>
        <time>2019-07-31T13:21:18Z</time>
      </trkpt>
      <trkpt lat="43.845" lon="6.15615">
        <ele>648</ele>
        <time>2019-07-31T13:21:22Z</time>
      </trkpt>
      <trkpt lat="43.84483" lon="6.15624">
        <ele>648</ele>
        <time>2019-07-31T13:21:26Z</time>
      </trkpt>
      <trkpt lat="43.84427" lon="6.15643">
        <ele>647</ele>
        <time>2019-07-31T13:21:36Z</time>
      </trkpt>
      <trkpt lat="43.84418" lon="6.15649">
        <ele>647</ele>
        <time>2019-07-31T13:21:38Z</time>
      </trkpt>
      <trkpt lat="43.84402" lon="6.15666">
        <ele>648</ele>
        <time>2019-07-31T13:21:41Z</time>
      </trkpt>
      <trkpt lat="43.84394" lon="6.1569">
        <ele>648</ele>
        <time>2019-07-31T13:21:45Z</time>
      </trkpt>
      <trkpt lat="43.8439" lon="6.15757">
        <ele>648</ele>
        <time>2019-07-31T13:21:53Z</time>
      </trkpt>
      <trkpt lat="43.84375" lon="6.15794">
        <ele>648</ele>
        <time>2019-07-31T13:21:59Z</time>
      </trkpt>
      <trkpt lat="43.84337" lon="6.15866">
        <ele>646</ele>
        <time>2019-07-31T13:22:10Z</time>
      </trkpt>
      <trkpt lat="43.84325" lon="6.15894">
        <ele>645</ele>
        <time>2019-07-31T13:22:14Z</time>
      </trkpt>
      <trkpt lat="43.84326" lon="6.15935">
        <ele>645</ele>
        <time>2019-07-31T13:22:20Z</time>
      </trkpt>
      <trkpt lat="43.84333" lon="6.15963">
        <ele>645</ele>
        <time>2019-07-31T13:22:23Z</time>
      </trkpt>
      <trkpt lat="43.84349" lon="6.15998">
        <ele>645</ele>
        <time>2019-07-31T13:22:29Z</time>
      </trkpt>
      <trkpt lat="43.84385" lon="6.16097">
        <ele>646</ele>
        <time>2019-07-31T13:22:43Z</time>
      </trkpt>
      <trkpt lat="43.84397" lon="6.16147">
        <ele>644</ele>
        <time>2019-07-31T13:22:50Z</time>
      </trkpt>
      <trkpt lat="43.84405" lon="6.16148">
        <ele>644</ele>
        <time>2019-07-31T13:22:51Z</time>
      </trkpt>
      <trkpt lat="43.84408" lon="6.16151">
        <ele>644</ele>
        <time>2019-07-31T13:22:52Z</time>
      </trkpt>
      <trkpt lat="43.84438" lon="6.16154">
        <ele>647</ele>
        <time>2019-07-31T13:22:57Z</time>
      </trkpt>
      <trkpt lat="43.84453" lon="6.16161">
        <ele>648</ele>
        <time>2019-07-31T13:23:00Z</time>
      </trkpt>
      <trkpt lat="43.84485" lon="6.16196">
        <ele>649</ele>
        <time>2019-07-31T13:23:07Z</time>
      </trkpt>
      <trkpt lat="43.8455" lon="6.16307">
        <ele>651</ele>
        <time>2019-07-31T13:23:26Z</time>
      </trkpt>
      <trkpt lat="43.8484" lon="6.16844">
        <ele>662</ele>
        <time>2019-07-31T13:24:52Z</time>
      </trkpt>
      <trkpt lat="43.84867" lon="6.16901">
        <ele>664</ele>
        <time>2019-07-31T13:25:00Z</time>
      </trkpt>
      <trkpt lat="43.84893" lon="6.17002">
        <ele>665</ele>
        <time>2019-07-31T13:25:14Z</time>
      </trkpt>
      <trkpt lat="43.84909" lon="6.17048">
        <ele>667</ele>
        <time>2019-07-31T13:25:21Z</time>
      </trkpt>
      <trkpt lat="43.84918" lon="6.17065">
        <ele>667</ele>
        <time>2019-07-31T13:25:23Z</time>
      </trkpt>
      <trkpt lat="43.84931" lon="6.17086">
        <ele>668</ele>
        <time>2019-07-31T13:25:27Z</time>
      </trkpt>
      <trkpt lat="43.84953" lon="6.17112">
        <ele>670</ele>
        <time>2019-07-31T13:25:32Z</time>
      </trkpt>
      <trkpt lat="43.85015" lon="6.17172">
        <ele>671</ele>
        <time>2019-07-31T13:25:46Z</time>
      </trkpt>
      <trkpt lat="43.85034" lon="6.17197">
        <ele>672</ele>
        <time>2019-07-31T13:25:50Z</time>
      </trkpt>
      <trkpt lat="43.85056" lon="6.17238">
        <ele>672</ele>
        <time>2019-07-31T13:25:57Z</time>
      </trkpt>
      <trkpt lat="43.85071" lon="6.17283">
        <ele>673</ele>
        <time>2019-07-31T13:26:03Z</time>
      </trkpt>
      <trkpt lat="43.85083" lon="6.17351">
        <ele>675</ele>
        <time>2019-07-31T13:26:12Z</time>
      </trkpt>
      <trkpt lat="43.85099" lon="6.17501">
        <ele>679</ele>
        <time>2019-07-31T13:26:32Z</time>
      </trkpt>
      <trkpt lat="43.85106" lon="6.17542">
        <ele>680</ele>
        <time>2019-07-31T13:26:37Z</time>
      </trkpt>
      <trkpt lat="43.85119" lon="6.17593">
        <ele>682</ele>
        <time>2019-07-31T13:26:44Z</time>
      </trkpt>
      <trkpt lat="43.85227" lon="6.17891">
        <ele>690</ele>
        <time>2019-07-31T13:27:27Z</time>
      </trkpt>
      <trkpt lat="43.85246" lon="6.17962">
        <ele>691</ele>
        <time>2019-07-31T13:27:36Z</time>
      </trkpt>
      <trkpt lat="43.8525" lon="6.17998">
        <ele>691</ele>
        <time>2019-07-31T13:27:41Z</time>
      </trkpt>
      <trkpt lat="43.85251" lon="6.18039">
        <ele>693</ele>
        <time>2019-07-31T13:27:46Z</time>
      </trkpt>
      <trkpt lat="43.85247" lon="6.18074">
        <ele>694</ele>
        <time>2019-07-31T13:27:51Z</time>
      </trkpt>
      <trkpt lat="43.85199" lon="6.1826">
        <ele>694</ele>
        <time>2019-07-31T13:28:16Z</time>
      </trkpt>
      <trkpt lat="43.85188" lon="6.18311">
        <ele>695</ele>
        <time>2019-07-31T13:28:23Z</time>
      </trkpt>
      <trkpt lat="43.85184" lon="6.18352">
        <ele>696</ele>
        <time>2019-07-31T13:28:28Z</time>
      </trkpt>
      <trkpt lat="43.85183" lon="6.18388">
        <ele>696</ele>
        <time>2019-07-31T13:28:33Z</time>
      </trkpt>
      <trkpt lat="43.85186" lon="6.18447">
        <ele>698</ele>
        <time>2019-07-31T13:28:41Z</time>
      </trkpt>
      <trkpt lat="43.85202" lon="6.18524">
        <ele>700</ele>
        <time>2019-07-31T13:28:51Z</time>
      </trkpt>
      <trkpt lat="43.85217" lon="6.18566">
        <ele>701</ele>
        <time>2019-07-31T13:28:57Z</time>
      </trkpt>
      <trkpt lat="43.85684" lon="6.19578">
        <ele>706</ele>
        <time>2019-07-31T13:31:31Z</time>
      </trkpt>
      <trkpt lat="43.85705" lon="6.19647">
        <ele>701</ele>
        <time>2019-07-31T13:31:41Z</time>
      </trkpt>
      <trkpt lat="43.8573" lon="6.197">
        <ele>698</ele>
        <time>2019-07-31T13:31:49Z</time>
      </trkpt>
      <trkpt lat="43.85738" lon="6.19715">
        <ele>697</ele>
        <time>2019-07-31T13:31:51Z</time>
      </trkpt>
      <trkpt lat="43.85747" lon="6.19726">
        <ele>697</ele>
        <time>2019-07-31T13:31:53Z</time>
      </trkpt>
      <trkpt lat="43.85775" lon="6.19742">
        <ele>698</ele>
        <time>2019-07-31T13:31:59Z</time>
      </trkpt>
      <trkpt lat="43.85787" lon="6.19752">
        <ele>698</ele>
        <time>2019-07-31T13:32:01Z</time>
      </trkpt>
      <trkpt lat="43.85808" lon="6.19791">
        <ele>696</ele>
        <time>2019-07-31T13:32:07Z</time>
      </trkpt>
      <trkpt lat="43.85829" lon="6.19824">
        <ele>695</ele>
        <time>2019-07-31T13:32:13Z</time>
      </trkpt>
      <trkpt lat="43.85849" lon="6.19849">
        <ele>697</ele>
        <time>2019-07-31T13:32:18Z</time>
      </trkpt>
      <trkpt lat="43.85851" lon="6.19861">
        <ele>696</ele>
        <time>2019-07-31T13:32:19Z</time>
      </trkpt>
      <trkpt lat="43.85849" lon="6.19866">
        <ele>695</ele>
        <time>2019-07-31T13:32:20Z</time>
      </trkpt>
      <trkpt lat="43.85841" lon="6.19872">
        <ele>692</ele>
        <time>2019-07-31T13:32:22Z</time>
      </trkpt>
      <trkpt lat="43.85836" lon="6.19871">
        <ele>691</ele>
        <time>2019-07-31T13:32:23Z</time>
      </trkpt>
      <trkpt lat="43.85788" lon="6.19816">
        <ele>688</ele>
        <time>2019-07-31T13:32:34Z</time>
      </trkpt>
      <trkpt lat="43.85765" lon="6.19794">
        <ele>687</ele>
        <time>2019-07-31T13:32:39Z</time>
      </trkpt>
      <trkpt lat="43.85754" lon="6.19788">
        <ele>686</ele>
        <time>2019-07-31T13:32:41Z</time>
      </trkpt>
      <trkpt lat="43.85723" lon="6.1978">
        <ele>680</ele>
        <time>2019-07-31T13:32:46Z</time>
      </trkpt>
      <trkpt lat="43.85711" lon="6.19774">
        <ele>678</ele>
        <time>2019-07-31T13:32:49Z</time>
      </trkpt>
      <trkpt lat="43.85681" lon="6.19747">
        <ele>675</ele>
        <time>2019-07-31T13:32:55Z</time>
      </trkpt>
      <trkpt lat="43.85664" lon="6.19724">
        <ele>675</ele>
        <time>2019-07-31T13:32:59Z</time>
      </trkpt>
      <trkpt lat="43.85647" lon="6.19678">
        <ele>678</ele>
        <time>2019-07-31T13:33:06Z</time>
      </trkpt>
      <trkpt lat="43.85634" lon="6.19652">
        <ele>679</ele>
        <time>2019-07-31T13:33:10Z</time>
      </trkpt>
      <trkpt lat="43.85604" lon="6.19618">
        <ele>676</ele>
        <time>2019-07-31T13:33:17Z</time>
      </trkpt>
      <trkpt lat="43.85587" lon="6.19606">
        <ele>674</ele>
        <time>2019-07-31T13:33:20Z</time>
      </trkpt>
      <trkpt lat="43.85573" lon="6.19591">
        <ele>673</ele>
        <time>2019-07-31T13:33:23Z</time>
      </trkpt>
      <trkpt lat="43.85545" lon="6.19549">
        <ele>673</ele>
        <time>2019-07-31T13:33:31Z</time>
      </trkpt>
      <trkpt lat="43.85539" lon="6.19544">
        <ele>673</ele>
        <time>2019-07-31T13:33:32Z</time>
      </trkpt>
      <trkpt lat="43.85535" lon="6.19544">
        <ele>672</ele>
        <time>2019-07-31T13:33:33Z</time>
      </trkpt>
      <trkpt lat="43.85529" lon="6.19552">
        <ele>668</ele>
        <time>2019-07-31T13:33:34Z</time>
      </trkpt>
      <trkpt lat="43.85528" lon="6.19559">
        <ele>667</ele>
        <time>2019-07-31T13:33:35Z</time>
      </trkpt>
      <trkpt lat="43.8553" lon="6.19565">
        <ele>666</ele>
        <time>2019-07-31T13:33:36Z</time>
      </trkpt>
      <trkpt lat="43.85595" lon="6.19664">
        <ele>665</ele>
        <time>2019-07-31T13:33:53Z</time>
      </trkpt>
      <trkpt lat="43.85614" lon="6.19702">
        <ele>665</ele>
        <time>2019-07-31T13:33:59Z</time>
      </trkpt>
      <trkpt lat="43.85637" lon="6.19769">
        <ele>662</ele>
        <time>2019-07-31T13:34:09Z</time>
      </trkpt>
      <trkpt lat="43.85649" lon="6.19792">
        <ele>662</ele>
        <time>2019-07-31T13:34:12Z</time>
      </trkpt>
      <trkpt lat="43.85652" lon="6.19803">
        <ele>661</ele>
        <time>2019-07-31T13:34:14Z</time>
      </trkpt>
      <trkpt lat="43.85651" lon="6.1981">
        <ele>660</ele>
        <time>2019-07-31T13:34:15Z</time>
      </trkpt>
      <trkpt lat="43.85645" lon="6.19817">
        <ele>658</ele>
        <time>2019-07-31T13:34:16Z</time>
      </trkpt>
      <trkpt lat="43.85638" lon="6.19815">
        <ele>657</ele>
        <time>2019-07-31T13:34:17Z</time>
      </trkpt>
      <trkpt lat="43.8561" lon="6.19759">
        <ele>657</ele>
        <time>2019-07-31T13:34:26Z</time>
      </trkpt>
      <trkpt lat="43.85461" lon="6.1964">
        <ele>644</ele>
        <time>2019-07-31T13:34:57Z</time>
      </trkpt>
      <trkpt lat="43.85441" lon="6.19609">
        <ele>645</ele>
        <time>2019-07-31T13:35:02Z</time>
      </trkpt>
      <trkpt lat="43.85432" lon="6.196">
        <ele>644</ele>
        <time>2019-07-31T13:35:04Z</time>
      </trkpt>
      <trkpt lat="43.85389" lon="6.19574">
        <ele>641</ele>
        <time>2019-07-31T13:35:12Z</time>
      </trkpt>
      <trkpt lat="43.8534" lon="6.19537">
        <ele>638</ele>
        <time>2019-07-31T13:35:22Z</time>
      </trkpt>
      <trkpt lat="43.85333" lon="6.19535">
        <ele>638</ele>
        <time>2019-07-31T13:35:24Z</time>
      </trkpt>
      <trkpt lat="43.85312" lon="6.19536">
        <ele>636</ele>
        <time>2019-07-31T13:35:27Z</time>
      </trkpt>
      <trkpt lat="43.85218" lon="6.19559">
        <ele>629</ele>
        <time>2019-07-31T13:35:44Z</time>
      </trkpt>
      <trkpt lat="43.85217" lon="6.1955">
        <ele>629</ele>
        <time>2019-07-31T13:35:45Z</time>
      </trkpt>
      <trkpt lat="43.85202" lon="6.19546">
        <ele>630</ele>
        <time>2019-07-31T13:35:48Z</time>
      </trkpt>
      <trkpt lat="43.85187" lon="6.19548">
        <ele>629</ele>
        <time>2019-07-31T13:35:51Z</time>
      </trkpt>
      <trkpt lat="43.85166" lon="6.19555">
        <ele>629</ele>
        <time>2019-07-31T13:35:55Z</time>
      </trkpt>
      <trkpt lat="43.8514" lon="6.19554">
        <ele>629</ele>
        <time>2019-07-31T13:35:59Z</time>
      </trkpt>
      <trkpt lat="43.85117" lon="6.19561">
        <ele>629</ele>
        <time>2019-07-31T13:36:04Z</time>
      </trkpt>
      <trkpt lat="43.85062" lon="6.19586">
        <ele>626</ele>
        <time>2019-07-31T13:36:14Z</time>
      </trkpt>
      <trkpt lat="43.85035" lon="6.196">
        <ele>625</ele>
        <time>2019-07-31T13:36:19Z</time>
      </trkpt>
      <trkpt lat="43.84998" lon="6.19625">
        <ele>621</ele>
        <time>2019-07-31T13:36:26Z</time>
      </trkpt>
      <trkpt lat="43.84964" lon="6.19656">
        <ele>617</ele>
        <time>2019-07-31T13:36:34Z</time>
      </trkpt>
      <trkpt lat="43.84943" lon="6.19679">
        <ele>617</ele>
        <time>2019-07-31T13:36:38Z</time>
      </trkpt>
      <trkpt lat="43.84919" lon="6.19722">
        <ele>617</ele>
        <time>2019-07-31T13:36:45Z</time>
      </trkpt>
      <trkpt lat="43.84898" lon="6.19768">
        <ele>616</ele>
        <time>2019-07-31T13:36:52Z</time>
      </trkpt>
      <trkpt lat="43.84865" lon="6.19821">
        <ele>615</ele>
        <time>2019-07-31T13:37:01Z</time>
      </trkpt>
      <trkpt lat="43.84828" lon="6.19919">
        <ele>608</ele>
        <time>2019-07-31T13:37:15Z</time>
      </trkpt>
      <trkpt lat="43.84732" lon="6.20096">
        <ele>597</ele>
        <time>2019-07-31T13:37:44Z</time>
      </trkpt>
      <trkpt lat="43.84617" lon="6.20288">
        <ele>590</ele>
        <time>2019-07-31T13:38:16Z</time>
      </trkpt>
      <trkpt lat="43.8461" lon="6.20308">
        <ele>589</ele>
        <time>2019-07-31T13:38:19Z</time>
      </trkpt>
      <trkpt lat="43.84619" lon="6.20359">
        <ele>591</ele>
        <time>2019-07-31T13:38:25Z</time>
      </trkpt>
      <trkpt lat="43.84614" lon="6.20379">
        <ele>591</ele>
        <time>2019-07-31T13:38:28Z</time>
      </trkpt>
      <trkpt lat="43.84602" lon="6.20397">
        <ele>591</ele>
        <time>2019-07-31T13:38:31Z</time>
      </trkpt>
      <trkpt lat="43.84576" lon="6.20419">
        <ele>590</ele>
        <time>2019-07-31T13:38:37Z</time>
      </trkpt>
      <trkpt lat="43.84514" lon="6.20479">
        <ele>586</ele>
        <time>2019-07-31T13:38:50Z</time>
      </trkpt>
      <trkpt lat="43.8449" lon="6.20508">
        <ele>584</ele>
        <time>2019-07-31T13:38:56Z</time>
      </trkpt>
      <trkpt lat="43.84456" lon="6.20559">
        <ele>581</ele>
        <time>2019-07-31T13:39:05Z</time>
      </trkpt>
      <trkpt lat="43.84447" lon="6.20577">
        <ele>580</ele>
        <time>2019-07-31T13:39:08Z</time>
      </trkpt>
      <trkpt lat="43.84438" lon="6.20599">
        <ele>580</ele>
        <time>2019-07-31T13:39:11Z</time>
      </trkpt>
      <trkpt lat="43.84411" lon="6.20687">
        <ele>579</ele>
        <time>2019-07-31T13:39:23Z</time>
      </trkpt>
      <trkpt lat="43.84369" lon="6.20789">
        <ele>577</ele>
        <time>2019-07-31T13:39:38Z</time>
      </trkpt>
      <trkpt lat="43.8431" lon="6.20971">
        <ele>575</ele>
        <time>2019-07-31T13:40:04Z</time>
      </trkpt>
      <trkpt lat="43.84256" lon="6.21163">
        <ele>575</ele>
        <time>2019-07-31T13:40:30Z</time>
      </trkpt>
      <trkpt lat="43.8423" lon="6.21234">
        <ele>573</ele>
        <time>2019-07-31T13:40:40Z</time>
      </trkpt>
      <trkpt lat="43.8421" lon="6.21329">
        <ele>569</ele>
        <time>2019-07-31T13:40:53Z</time>
      </trkpt>
      <trkpt lat="43.84208" lon="6.21359">
        <ele>568</ele>
        <time>2019-07-31T13:40:57Z</time>
      </trkpt>
      <trkpt lat="43.84189" lon="6.21356">
        <ele>566</ele>
        <time>2019-07-31T13:41:00Z</time>
      </trkpt>
      <trkpt lat="43.84181" lon="6.21352">
        <ele>564</ele>
        <time>2019-07-31T13:41:02Z</time>
      </trkpt>
      <trkpt lat="43.84163" lon="6.21322">
        <ele>562</ele>
        <time>2019-07-31T13:41:07Z</time>
      </trkpt>
      <trkpt lat="43.84072" lon="6.20959">
        <ele>566</ele>
        <time>2019-07-31T13:41:56Z</time>
      </trkpt>
      <trkpt lat="43.84073" lon="6.20937">
        <ele>567</ele>
        <time>2019-07-31T13:41:59Z</time>
      </trkpt>
      <trkpt lat="43.84081" lon="6.2091">
        <ele>569</ele>
        <time>2019-07-31T13:42:03Z</time>
      </trkpt>
      <trkpt lat="43.84131" lon="6.20799">
        <ele>577</ele>
        <time>2019-07-31T13:42:20Z</time>
      </trkpt>
      <trkpt lat="43.84133" lon="6.20787">
        <ele>578</ele>
        <time>2019-07-31T13:42:21Z</time>
      </trkpt>
      <trkpt lat="43.84124" lon="6.20777">
        <ele>580</ele>
        <time>2019-07-31T13:42:23Z</time>
      </trkpt>
      <trkpt lat="43.83975" lon="6.20771">
        <ele>591</ele>
        <time>2019-07-31T13:42:50Z</time>
      </trkpt>
      <trkpt lat="43.83967" lon="6.20763">
        <ele>592</ele>
        <time>2019-07-31T13:42:52Z</time>
      </trkpt>
      <trkpt lat="43.83969" lon="6.20748">
        <ele>594</ele>
        <time>2019-07-31T13:42:53Z</time>
      </trkpt>
      <trkpt lat="43.84014" lon="6.20698">
        <ele>598</ele>
        <time>2019-07-31T13:43:04Z</time>
      </trkpt>
      <trkpt lat="43.84015" lon="6.20688">
        <ele>599</ele>
        <time>2019-07-31T13:43:05Z</time>
      </trkpt>
      <trkpt lat="43.84008" lon="6.20683">
        <ele>600</ele>
        <time>2019-07-31T13:43:06Z</time>
      </trkpt>
      <trkpt lat="43.83929" lon="6.20669">
        <ele>605</ele>
        <time>2019-07-31T13:43:21Z</time>
      </trkpt>
      <trkpt lat="43.83912" lon="6.20669">
        <ele>605</ele>
        <time>2019-07-31T13:43:24Z</time>
      </trkpt>
      <trkpt lat="43.83906" lon="6.20663">
        <ele>605</ele>
        <time>2019-07-31T13:43:25Z</time>
      </trkpt>
      <trkpt lat="43.83925" lon="6.20631">
        <ele>610</ele>
        <time>2019-07-31T13:43:30Z</time>
      </trkpt>
      <trkpt lat="43.83948" lon="6.20604">
        <ele>612</ele>
        <time>2019-07-31T13:43:36Z</time>
      </trkpt>
      <trkpt lat="43.83964" lon="6.20574">
        <ele>614</ele>
        <time>2019-07-31T13:43:40Z</time>
      </trkpt>
      <trkpt lat="43.83967" lon="6.20551">
        <ele>613</ele>
        <time>2019-07-31T13:43:43Z</time>
      </trkpt>
      <trkpt lat="43.83941" lon="6.2044">
        <ele>614</ele>
        <time>2019-07-31T13:43:58Z</time>
      </trkpt>
      <trkpt lat="43.83932" lon="6.20247">
        <ele>628</ele>
        <time>2019-07-31T13:44:23Z</time>
      </trkpt>
      <trkpt lat="43.83946" lon="6.20192">
        <ele>637</ele>
        <time>2019-07-31T13:44:31Z</time>
      </trkpt>
      <trkpt lat="43.83956" lon="6.20172">
        <ele>640</ele>
        <time>2019-07-31T13:44:34Z</time>
      </trkpt>
      <trkpt lat="43.83966" lon="6.20164">
        <ele>641</ele>
        <time>2019-07-31T13:44:36Z</time>
      </trkpt>
      <trkpt lat="43.83981" lon="6.20163">
        <ele>642</ele>
        <time>2019-07-31T13:44:39Z</time>
      </trkpt>
      <trkpt lat="43.8403" lon="6.20114">
        <ele>650</ele>
        <time>2019-07-31T13:44:49Z</time>
      </trkpt>
      <trkpt lat="43.84072" lon="6.20079">
        <ele>654</ele>
        <time>2019-07-31T13:44:58Z</time>
      </trkpt>
      <trkpt lat="43.84078" lon="6.20064">
        <ele>656</ele>
        <time>2019-07-31T13:45:00Z</time>
      </trkpt>
      <trkpt lat="43.84079" lon="6.20014">
        <ele>664</ele>
        <time>2019-07-31T13:45:07Z</time>
      </trkpt>
      <trkpt lat="43.8409" lon="6.19958">
        <ele>672</ele>
        <time>2019-07-31T13:45:14Z</time>
      </trkpt>
      <trkpt lat="43.84103" lon="6.19923">
        <ele>674</ele>
        <time>2019-07-31T13:45:19Z</time>
      </trkpt>
      <trkpt lat="43.84094" lon="6.19919">
        <ele>677</ele>
        <time>2019-07-31T13:45:21Z</time>
      </trkpt>
      <trkpt lat="43.84077" lon="6.19926">
        <ele>680</ele>
        <time>2019-07-31T13:45:24Z</time>
      </trkpt>
      <trkpt lat="43.84046" lon="6.19948">
        <ele>681</ele>
        <time>2019-07-31T13:45:30Z</time>
      </trkpt>
      <trkpt lat="43.84027" lon="6.19955">
        <ele>682</ele>
        <time>2019-07-31T13:45:34Z</time>
      </trkpt>
      <trkpt lat="43.84015" lon="6.19955">
        <ele>684</ele>
        <time>2019-07-31T13:45:36Z</time>
      </trkpt>
      <trkpt lat="43.84007" lon="6.19946">
        <ele>687</ele>
        <time>2019-07-31T13:45:38Z</time>
      </trkpt>
      <trkpt lat="43.84009" lon="6.19933">
        <ele>689</ele>
        <time>2019-07-31T13:45:39Z</time>
      </trkpt>
      <trkpt lat="43.84041" lon="6.19881">
        <ele>693</ele>
        <time>2019-07-31T13:45:48Z</time>
      </trkpt>
      <trkpt lat="43.84032" lon="6.1987">
        <ele>696</ele>
        <time>2019-07-31T13:45:50Z</time>
      </trkpt>
      <trkpt lat="43.84012" lon="6.19873">
        <ele>700</ele>
        <time>2019-07-31T13:45:54Z</time>
      </trkpt>
      <trkpt lat="43.83998" lon="6.19878">
        <ele>702</ele>
        <time>2019-07-31T13:45:56Z</time>
      </trkpt>
      <trkpt lat="43.83991" lon="6.19872">
        <ele>703</ele>
        <time>2019-07-31T13:45:58Z</time>
      </trkpt>
      <trkpt lat="43.83996" lon="6.19862">
        <ele>705</ele>
        <time>2019-07-31T13:45:59Z</time>
      </trkpt>
      <trkpt lat="43.84015" lon="6.19847">
        <ele>704</ele>
        <time>2019-07-31T13:46:03Z</time>
      </trkpt>
      <trkpt lat="43.84017" lon="6.19837">
        <ele>706</ele>
        <time>2019-07-31T13:46:05Z</time>
      </trkpt>
      <trkpt lat="43.84011" lon="6.19828">
        <ele>709</ele>
        <time>2019-07-31T13:46:06Z</time>
      </trkpt>
      <trkpt lat="43.8399" lon="6.19839">
        <ele>709</ele>
        <time>2019-07-31T13:46:10Z</time>
      </trkpt>
      <trkpt lat="43.8398" lon="6.19836">
        <ele>709</ele>
        <time>2019-07-31T13:46:12Z</time>
      </trkpt>
      <trkpt lat="43.83978" lon="6.19824">
        <ele>712</ele>
        <time>2019-07-31T13:46:14Z</time>
      </trkpt>
      <trkpt lat="43.83996" lon="6.19806">
        <ele>715</ele>
        <time>2019-07-31T13:46:18Z</time>
      </trkpt>
      <trkpt lat="43.84001" lon="6.19792">
        <ele>717</ele>
        <time>2019-07-31T13:46:20Z</time>
      </trkpt>
      <trkpt lat="43.84" lon="6.19778">
        <ele>720</ele>
        <time>2019-07-31T13:46:21Z</time>
      </trkpt>
      <trkpt lat="43.83992" lon="6.19755">
        <ele>723</ele>
        <time>2019-07-31T13:46:25Z</time>
      </trkpt>
      <trkpt lat="43.83968" lon="6.19725">
        <ele>728</ele>
        <time>2019-07-31T13:46:30Z</time>
      </trkpt>
      <trkpt lat="43.83964" lon="6.19698">
        <ele>732</ele>
        <time>2019-07-31T13:46:34Z</time>
      </trkpt>
      <trkpt lat="43.83966" lon="6.19608">
        <ele>744</ele>
        <time>2019-07-31T13:46:46Z</time>
      </trkpt>
      <trkpt lat="43.83971" lon="6.19583">
        <ele>747</ele>
        <time>2019-07-31T13:46:49Z</time>
      </trkpt>
      <trkpt lat="43.83994" lon="6.19536">
        <ele>754</ele>
        <time>2019-07-31T13:46:56Z</time>
      </trkpt>
      <trkpt lat="43.83998" lon="6.1952">
        <ele>757</ele>
        <time>2019-07-31T13:46:58Z</time>
      </trkpt>
      <trkpt lat="43.83995" lon="6.19512">
        <ele>758</ele>
        <time>2019-07-31T13:46:59Z</time>
      </trkpt>
      <trkpt lat="43.83984" lon="6.19516">
        <ele>759</ele>
        <time>2019-07-31T13:47:01Z</time>
      </trkpt>
      <trkpt lat="43.83959" lon="6.19547">
        <ele>754</ele>
        <time>2019-07-31T13:47:07Z</time>
      </trkpt>
      <trkpt lat="43.83954" lon="6.1955">
        <ele>754</ele>
        <time>2019-07-31T13:47:08Z</time>
      </trkpt>
      <trkpt lat="43.83943" lon="6.19548">
        <ele>755</ele>
        <time>2019-07-31T13:47:10Z</time>
      </trkpt>
      <trkpt lat="43.8394" lon="6.19545">
        <ele>756</ele>
        <time>2019-07-31T13:47:11Z</time>
      </trkpt>
      <trkpt lat="43.8388" lon="6.19383">
        <ele>779</ele>
        <time>2019-07-31T13:47:34Z</time>
      </trkpt>
      <trkpt lat="43.8387" lon="6.19364">
        <ele>779</ele>
        <time>2019-07-31T13:47:37Z</time>
      </trkpt>
      <trkpt lat="43.83858" lon="6.1936">
        <ele>779</ele>
        <time>2019-07-31T13:47:40Z</time>
      </trkpt>
      <trkpt lat="43.8385" lon="6.19363">
        <ele>779</ele>
        <time>2019-07-31T13:47:41Z</time>
      </trkpt>
      <trkpt lat="43.83811" lon="6.19389">
        <ele>779</ele>
        <time>2019-07-31T13:47:49Z</time>
      </trkpt>
      <trkpt lat="43.83759" lon="6.19413">
        <ele>780</ele>
        <time>2019-07-31T13:47:59Z</time>
      </trkpt>
      <trkpt lat="43.83676" lon="6.19439">
        <ele>777</ele>
        <time>2019-07-31T13:48:14Z</time>
      </trkpt>
      <trkpt lat="43.83662" lon="6.1944">
        <ele>777</ele>
        <time>2019-07-31T13:48:16Z</time>
      </trkpt>
      <trkpt lat="43.83641" lon="6.19435">
        <ele>776</ele>
        <time>2019-07-31T13:48:20Z</time>
      </trkpt>
      <trkpt lat="43.83568" lon="6.19398">
        <ele>775</ele>
        <time>2019-07-31T13:48:34Z</time>
      </trkpt>
      <trkpt lat="43.83432" lon="6.19346">
        <ele>771</ele>
        <time>2019-07-31T13:48:59Z</time>
      </trkpt>
      <trkpt lat="43.83405" lon="6.19343">
        <ele>771</ele>
        <time>2019-07-31T13:49:04Z</time>
      </trkpt>
      <trkpt lat="43.83388" lon="6.19348">
        <ele>770</ele>
        <time>2019-07-31T13:49:07Z</time>
      </trkpt>
      <trkpt lat="43.83206" lon="6.19487">
        <ele>767</ele>
        <time>2019-07-31T13:49:44Z</time>
      </trkpt>
      <trkpt lat="43.83181" lon="6.19497">
        <ele>768</ele>
        <time>2019-07-31T13:49:48Z</time>
      </trkpt>
      <trkpt lat="43.83025" lon="6.19495">
        <ele>767</ele>
        <time>2019-07-31T13:50:16Z</time>
      </trkpt>
      <trkpt lat="43.82994" lon="6.195">
        <ele>765</ele>
        <time>2019-07-31T13:50:22Z</time>
      </trkpt>
      <trkpt lat="43.82967" lon="6.19512">
        <ele>763</ele>
        <time>2019-07-31T13:50:27Z</time>
      </trkpt>
      <trkpt lat="43.82898" lon="6.1956">
        <ele>760</ele>
        <time>2019-07-31T13:50:41Z</time>
      </trkpt>
      <trkpt lat="43.82879" lon="6.19579">
        <ele>760</ele>
        <time>2019-07-31T13:50:45Z</time>
      </trkpt>
      <trkpt lat="43.82835" lon="6.19632">
        <ele>761</ele>
        <time>2019-07-31T13:50:55Z</time>
      </trkpt>
      <trkpt lat="43.82816" lon="6.19643">
        <ele>762</ele>
        <time>2019-07-31T13:50:59Z</time>
      </trkpt>
      <trkpt lat="43.8267" lon="6.19705">
        <ele>767</ele>
        <time>2019-07-31T13:51:26Z</time>
      </trkpt>
      <trkpt lat="43.82652" lon="6.19715">
        <ele>767</ele>
        <time>2019-07-31T13:51:29Z</time>
      </trkpt>
      <trkpt lat="43.82632" lon="6.19731">
        <ele>768</ele>
        <time>2019-07-31T13:51:33Z</time>
      </trkpt>
      <trkpt lat="43.82553" lon="6.19841">
        <ele>770</ele>
        <time>2019-07-31T13:51:53Z</time>
      </trkpt>
      <trkpt lat="43.82532" lon="6.19866">
        <ele>769</ele>
        <time>2019-07-31T13:51:58Z</time>
      </trkpt>
      <trkpt lat="43.8241" lon="6.1994">
        <ele>770</ele>
        <time>2019-07-31T13:52:22Z</time>
      </trkpt>
      <trkpt lat="43.82349" lon="6.20025">
        <ele>770</ele>
        <time>2019-07-31T13:52:37Z</time>
      </trkpt>
      <trkpt lat="43.82332" lon="6.20039">
        <ele>772</ele>
        <time>2019-07-31T13:52:41Z</time>
      </trkpt>
      <trkpt lat="43.822" lon="6.20065">
        <ele>774</ele>
        <time>2019-07-31T13:53:05Z</time>
      </trkpt>
      <trkpt lat="43.82162" lon="6.20056">
        <ele>774</ele>
        <time>2019-07-31T13:53:11Z</time>
      </trkpt>
      <trkpt lat="43.81975" lon="6.19981">
        <ele>770</ele>
        <time>2019-07-31T13:53:46Z</time>
      </trkpt>
      <trkpt lat="43.81622" lon="6.19722">
        <ele>755</ele>
        <time>2019-07-31T13:54:57Z</time>
      </trkpt>
      <trkpt lat="43.81389" lon="6.19523">
        <ele>745</ele>
        <time>2019-07-31T13:55:46Z</time>
      </trkpt>
      <trkpt lat="43.81375" lon="6.19517">
        <ele>744</ele>
        <time>2019-07-31T13:55:49Z</time>
      </trkpt>
      <trkpt lat="43.81358" lon="6.19517">
        <ele>744</ele>
        <time>2019-07-31T13:55:52Z</time>
      </trkpt>
      <trkpt lat="43.81295" lon="6.19533">
        <ele>740</ele>
        <time>2019-07-31T13:56:03Z</time>
      </trkpt>
      <trkpt lat="43.81275" lon="6.19527">
        <ele>738</ele>
        <time>2019-07-31T13:56:07Z</time>
      </trkpt>
      <trkpt lat="43.81133" lon="6.19438">
        <ele>732</ele>
        <time>2019-07-31T13:56:34Z</time>
      </trkpt>
      <trkpt lat="43.80949" lon="6.19365">
        <ele>724</ele>
        <time>2019-07-31T13:57:08Z</time>
      </trkpt>
      <trkpt lat="43.80908" lon="6.19327">
        <ele>723</ele>
        <time>2019-07-31T13:57:17Z</time>
      </trkpt>
      <trkpt lat="43.80896" lon="6.19327">
        <ele>722</ele>
        <time>2019-07-31T13:57:19Z</time>
      </trkpt>
      <trkpt lat="43.80834" lon="6.19391">
        <ele>720</ele>
        <time>2019-07-31T13:57:33Z</time>
      </trkpt>
      <trkpt lat="43.80809" lon="6.19402">
        <ele>720</ele>
        <time>2019-07-31T13:57:38Z</time>
      </trkpt>
      <trkpt lat="43.80117" lon="6.19568">
        <ele>711</ele>
        <time>2019-07-31T13:59:43Z</time>
      </trkpt>
      <trkpt lat="43.80103" lon="6.19566">
        <ele>711</ele>
        <time>2019-07-31T13:59:45Z</time>
      </trkpt>
      <trkpt lat="43.79967" lon="6.19457">
        <ele>708</ele>
        <time>2019-07-31T14:00:13Z</time>
      </trkpt>
      <trkpt lat="43.79535" lon="6.18957">
        <ele>689</ele>
        <time>2019-07-31T14:01:53Z</time>
      </trkpt>
      <trkpt lat="43.79396" lon="6.18759">
        <ele>684</ele>
        <time>2019-07-31T14:02:29Z</time>
      </trkpt>
      <trkpt lat="43.79301" lon="6.18703">
        <ele>683</ele>
        <time>2019-07-31T14:02:47Z</time>
      </trkpt>
      <trkpt lat="43.7909" lon="6.18674">
        <ele>680</ele>
        <time>2019-07-31T14:03:25Z</time>
      </trkpt>
      <trkpt lat="43.79066" lon="6.18663">
        <ele>681</ele>
        <time>2019-07-31T14:03:29Z</time>
      </trkpt>
      <trkpt lat="43.78419" lon="6.17895">
        <ele>673</ele>
        <time>2019-07-31T14:06:01Z</time>
      </trkpt>
      <trkpt lat="43.78299" lon="6.17761">
        <ele>670</ele>
        <time>2019-07-31T14:06:28Z</time>
      </trkpt>
      <trkpt lat="43.78087" lon="6.17451">
        <ele>667</ele>
        <time>2019-07-31T14:07:23Z</time>
      </trkpt>
      <trkpt lat="43.77923" lon="6.17176">
        <ele>664</ele>
        <time>2019-07-31T14:08:09Z</time>
      </trkpt>
      <trkpt lat="43.77719" lon="6.16898">
        <ele>662</ele>
        <time>2019-07-31T14:09:00Z</time>
      </trkpt>
      <trkpt lat="43.77388" lon="6.16511">
        <ele>656</ele>
        <time>2019-07-31T14:10:17Z</time>
      </trkpt>
      <trkpt lat="43.77207" lon="6.16265">
        <ele>651</ele>
        <time>2019-07-31T14:11:02Z</time>
      </trkpt>
      <trkpt lat="43.77087" lon="6.16086">
        <ele>650</ele>
        <time>2019-07-31T14:11:34Z</time>
      </trkpt>
      <trkpt lat="43.76995" lon="6.15922">
        <ele>648</ele>
        <time>2019-07-31T14:12:00Z</time>
      </trkpt>
      <trkpt lat="43.76977" lon="6.15886">
        <ele>647</ele>
        <time>2019-07-31T14:12:06Z</time>
      </trkpt>
      <trkpt lat="43.76945" lon="6.15773">
        <ele>648</ele>
        <time>2019-07-31T14:12:21Z</time>
      </trkpt>
      <trkpt lat="43.76907" lon="6.15603">
        <ele>648</ele>
        <time>2019-07-31T14:12:44Z</time>
      </trkpt>
      <trkpt lat="43.76879" lon="6.15451">
        <ele>645</ele>
        <time>2019-07-31T14:13:04Z</time>
      </trkpt>
      <trkpt lat="43.76868" lon="6.15415">
        <ele>645</ele>
        <time>2019-07-31T14:13:09Z</time>
      </trkpt>
      <trkpt lat="43.76842" lon="6.15348">
        <ele>647</ele>
        <time>2019-07-31T14:13:19Z</time>
      </trkpt>
      <trkpt lat="43.76773" lon="6.15233">
        <ele>642</ele>
        <time>2019-07-31T14:13:38Z</time>
      </trkpt>
      <trkpt lat="43.76752" lon="6.15184">
        <ele>643</ele>
        <time>2019-07-31T14:13:46Z</time>
      </trkpt>
      <trkpt lat="43.76746" lon="6.15175">
        <ele>642</ele>
        <time>2019-07-31T14:13:47Z</time>
      </trkpt>
      <trkpt lat="43.76708" lon="6.15139">
        <ele>637</ele>
        <time>2019-07-31T14:13:56Z</time>
      </trkpt>
      <trkpt lat="43.76687" lon="6.15109">
        <ele>636</ele>
        <time>2019-07-31T14:14:01Z</time>
      </trkpt>
      <trkpt lat="43.76641" lon="6.15031">
        <ele>636</ele>
        <time>2019-07-31T14:14:14Z</time>
      </trkpt>
      <trkpt lat="43.76579" lon="6.14946">
        <ele>636</ele>
        <time>2019-07-31T14:14:29Z</time>
      </trkpt>
      <trkpt lat="43.76549" lon="6.14884">
        <ele>635</ele>
        <time>2019-07-31T14:14:39Z</time>
      </trkpt>
      <trkpt lat="43.76535" lon="6.14862">
        <ele>636</ele>
        <time>2019-07-31T14:14:43Z</time>
      </trkpt>
      <trkpt lat="43.76529" lon="6.14858">
        <ele>636</ele>
        <time>2019-07-31T14:14:44Z</time>
      </trkpt>
      <trkpt lat="43.76476" lon="6.14846">
        <ele>636</ele>
        <time>2019-07-31T14:14:53Z</time>
      </trkpt>
      <trkpt lat="43.76345" lon="6.14803">
        <ele>633</ele>
        <time>2019-07-31T14:15:17Z</time>
      </trkpt>
      <trkpt lat="43.76328" lon="6.14779">
        <ele>634</ele>
        <time>2019-07-31T14:15:22Z</time>
      </trkpt>
      <trkpt lat="43.76344" lon="6.14773">
        <ele>636</ele>
        <time>2019-07-31T14:15:25Z</time>
      </trkpt>
      <trkpt lat="43.76467" lon="6.14659">
        <ele>641</ele>
        <time>2019-07-31T14:15:51Z</time>
      </trkpt>
      <trkpt lat="43.7651" lon="6.14626">
        <ele>642</ele>
        <time>2019-07-31T14:16:00Z</time>
      </trkpt>
      <trkpt lat="43.76558" lon="6.14598">
        <ele>641</ele>
        <time>2019-07-31T14:16:09Z</time>
      </trkpt>
      <trkpt lat="43.76596" lon="6.14588">
        <ele>641</ele>
        <time>2019-07-31T14:16:16Z</time>
      </trkpt>
      <trkpt lat="43.76697" lon="6.14571">
        <ele>643</ele>
        <time>2019-07-31T14:16:34Z</time>
      </trkpt>
      <trkpt lat="43.76778" lon="6.14566">
        <ele>643</ele>
        <time>2019-07-31T14:16:48Z</time>
      </trkpt>
      <trkpt lat="43.76837" lon="6.14565">
        <ele>643</ele>
        <time>2019-07-31T14:16:59Z</time>
      </trkpt>
      <trkpt lat="43.77" lon="6.14571">
        <ele>644</ele>
        <time>2019-07-31T14:17:28Z</time>
      </trkpt>
      <trkpt lat="43.77076" lon="6.14568">
        <ele>643</ele>
        <time>2019-07-31T14:17:42Z</time>
      </trkpt>
      <trkpt lat="43.77131" lon="6.1456">
        <ele>641</ele>
        <time>2019-07-31T14:17:51Z</time>
      </trkpt>
      <trkpt lat="43.77385" lon="6.14508">
        <ele>642</ele>
        <time>2019-07-31T14:18:37Z</time>
      </trkpt>
      <trkpt lat="43.77444" lon="6.14499">
        <ele>643</ele>
        <time>2019-07-31T14:18:48Z</time>
      </trkpt>
      <trkpt lat="43.77505" lon="6.14495">
        <ele>646</ele>
        <time>2019-07-31T14:18:58Z</time>
      </trkpt>
      <trkpt lat="43.77648" lon="6.14497">
        <ele>644</ele>
        <time>2019-07-31T14:19:24Z</time>
      </trkpt>
      <trkpt lat="43.77706" lon="6.14491">
        <ele>645</ele>
        <time>2019-07-31T14:19:34Z</time>
      </trkpt>
      <trkpt lat="43.77872" lon="6.1445">
        <ele>649</ele>
        <time>2019-07-31T14:20:04Z</time>
      </trkpt>
      <trkpt lat="43.78006" lon="6.14412">
        <ele>647</ele>
        <time>2019-07-31T14:20:29Z</time>
      </trkpt>
      <trkpt lat="43.78064" lon="6.14393">
        <ele>647</ele>
        <time>2019-07-31T14:20:39Z</time>
      </trkpt>
      <trkpt lat="43.78232" lon="6.14327">
        <ele>647</ele>
        <time>2019-07-31T14:21:10Z</time>
      </trkpt>
      <trkpt lat="43.78422" lon="6.14247">
        <ele>647</ele>
        <time>2019-07-31T14:21:46Z</time>
      </trkpt>
      <trkpt lat="43.78451" lon="6.14227">
        <ele>645</ele>
        <time>2019-07-31T14:21:51Z</time>
      </trkpt>
      <trkpt lat="43.78486" lon="6.14175">
        <ele>643</ele>
        <time>2019-07-31T14:22:00Z</time>
      </trkpt>
      <trkpt lat="43.78516" lon="6.14157">
        <ele>644</ele>
        <time>2019-07-31T14:22:06Z</time>
      </trkpt>
      <trkpt lat="43.78533" lon="6.14141">
        <ele>644</ele>
        <time>2019-07-31T14:22:10Z</time>
      </trkpt>
      <trkpt lat="43.78598" lon="6.14056">
        <ele>646</ele>
        <time>2019-07-31T14:22:26Z</time>
      </trkpt>
      <trkpt lat="43.7879" lon="6.14915">
        <ele>650</ele>
        <time>2019-07-31T14:24:21Z</time>
      </trkpt>
      <trkpt lat="43.78839" lon="6.15032">
        <ele>651</ele>
        <time>2019-07-31T14:24:39Z</time>
      </trkpt>
      <trkpt lat="43.78941" lon="6.15244">
        <ele>657</ele>
        <time>2019-07-31T14:25:11Z</time>
      </trkpt>
      <trkpt lat="43.79013" lon="6.15386">
        <ele>660</ele>
        <time>2019-07-31T14:25:34Z</time>
      </trkpt>
      <trkpt lat="43.79113" lon="6.15574">
        <ele>663</ele>
        <time>2019-07-31T14:26:04Z</time>
      </trkpt>
      <trkpt lat="43.79121" lon="6.15579">
        <ele>663</ele>
        <time>2019-07-31T14:26:05Z</time>
      </trkpt>
      <trkpt lat="43.79133" lon="6.15575">
        <ele>662</ele>
        <time>2019-07-31T14:26:08Z</time>
      </trkpt>
      <trkpt lat="43.7939" lon="6.15288">
        <ele>664</ele>
        <time>2019-07-31T14:27:06Z</time>
      </trkpt>
      <trkpt lat="43.79417" lon="6.15261">
        <ele>665</ele>
        <time>2019-07-31T14:27:12Z</time>
      </trkpt>
      <trkpt lat="43.79588" lon="6.15073">
        <ele>666</ele>
        <time>2019-07-31T14:27:51Z</time>
      </trkpt>
      <trkpt lat="43.79619" lon="6.15047">
        <ele>666</ele>
        <time>2019-07-31T14:27:57Z</time>
      </trkpt>
      <trkpt lat="43.80032" lon="6.14946">
        <ele>666</ele>
        <time>2019-07-31T14:29:12Z</time>
      </trkpt>
      <trkpt lat="43.80268" lon="6.14827">
        <ele>665</ele>
        <time>2019-07-31T14:29:57Z</time>
      </trkpt>
      <trkpt lat="43.8029" lon="6.14826">
        <ele>662</ele>
        <time>2019-07-31T14:30:01Z</time>
      </trkpt>
      <trkpt lat="43.80305" lon="6.14841">
        <ele>660</ele>
        <time>2019-07-31T14:30:04Z</time>
      </trkpt>
      <trkpt lat="43.80313" lon="6.14867">
        <ele>658</ele>
        <time>2019-07-31T14:30:08Z</time>
      </trkpt>
      <trkpt lat="43.8031" lon="6.14904">
        <ele>657</ele>
        <time>2019-07-31T14:30:12Z</time>
      </trkpt>
      <trkpt lat="43.80302" lon="6.14929">
        <ele>657</ele>
        <time>2019-07-31T14:30:16Z</time>
      </trkpt>
      <trkpt lat="43.80297" lon="6.14961">
        <ele>658</ele>
        <time>2019-07-31T14:30:20Z</time>
      </trkpt>
      <trkpt lat="43.80301" lon="6.14987">
        <ele>657</ele>
        <time>2019-07-31T14:30:24Z</time>
      </trkpt>
      <trkpt lat="43.80314" lon="6.15035">
        <ele>657</ele>
        <time>2019-07-31T14:30:30Z</time>
      </trkpt>
      <trkpt lat="43.80336" lon="6.15077">
        <ele>656</ele>
        <time>2019-07-31T14:30:37Z</time>
      </trkpt>
      <trkpt lat="43.80345" lon="6.15109">
        <ele>655</ele>
        <time>2019-07-31T14:30:41Z</time>
      </trkpt>
      <trkpt lat="43.80349" lon="6.15167">
        <ele>655</ele>
        <time>2019-07-31T14:30:49Z</time>
      </trkpt>
      <trkpt lat="43.80354" lon="6.15176">
        <ele>655</ele>
        <time>2019-07-31T14:30:50Z</time>
      </trkpt>
      <trkpt lat="43.80361" lon="6.15163">
        <ele>655</ele>
        <time>2019-07-31T14:30:52Z</time>
      </trkpt>
      <trkpt lat="43.8037" lon="6.15096">
        <ele>655</ele>
        <time>2019-07-31T14:31:01Z</time>
      </trkpt>
      <trkpt lat="43.80376" lon="6.15036">
        <ele>654</ele>
        <time>2019-07-31T14:31:09Z</time>
      </trkpt>
      <trkpt lat="43.80377" lon="6.14948">
        <ele>652</ele>
        <time>2019-07-31T14:31:20Z</time>
      </trkpt>
      <trkpt lat="43.80402" lon="6.14888">
        <ele>650</ele>
        <time>2019-07-31T14:31:29Z</time>
      </trkpt>
      <trkpt lat="43.80444" lon="6.14812">
        <ele>650</ele>
        <time>2019-07-31T14:31:41Z</time>
      </trkpt>
      <trkpt lat="43.80448" lon="6.14778">
        <ele>649</ele>
        <time>2019-07-31T14:31:46Z</time>
      </trkpt>
      <trkpt lat="43.80458" lon="6.14742">
        <ele>649</ele>
        <time>2019-07-31T14:31:51Z</time>
      </trkpt>
      <trkpt lat="43.80472" lon="6.14722">
        <ele>651</ele>
        <time>2019-07-31T14:31:54Z</time>
      </trkpt>
      <trkpt lat="43.80511" lon="6.14691">
        <ele>654</ele>
        <time>2019-07-31T14:32:02Z</time>
      </trkpt>
      <trkpt lat="43.80531" lon="6.1459">
        <ele>654</ele>
        <time>2019-07-31T14:32:16Z</time>
      </trkpt>
      <trkpt lat="43.80536" lon="6.14578">
        <ele>655</ele>
        <time>2019-07-31T14:32:17Z</time>
      </trkpt>
      <trkpt lat="43.8057" lon="6.14542">
        <ele>661</ele>
        <time>2019-07-31T14:32:25Z</time>
      </trkpt>
      <trkpt lat="43.80576" lon="6.14528">
        <ele>662</ele>
        <time>2019-07-31T14:32:27Z</time>
      </trkpt>
      <trkpt lat="43.80603" lon="6.14484">
        <ele>664</ele>
        <time>2019-07-31T14:32:35Z</time>
      </trkpt>
      <trkpt lat="43.80647" lon="6.14431">
        <ele>663</ele>
        <time>2019-07-31T14:32:45Z</time>
      </trkpt>
      <trkpt lat="43.80728" lon="6.14321">
        <ele>663</ele>
        <time>2019-07-31T14:33:05Z</time>
      </trkpt>
      <trkpt lat="43.80876" lon="6.1414">
        <ele>664</ele>
        <time>2019-07-31T14:33:40Z</time>
      </trkpt>
      <trkpt lat="43.80947" lon="6.14037">
        <ele>664</ele>
        <time>2019-07-31T14:33:58Z</time>
      </trkpt>
      <trkpt lat="43.80981" lon="6.14006">
        <ele>665</ele>
        <time>2019-07-31T14:34:06Z</time>
      </trkpt>
      <trkpt lat="43.81209" lon="6.13838">
        <ele>664</ele>
        <time>2019-07-31T14:34:52Z</time>
      </trkpt>
      <trkpt lat="43.81275" lon="6.13783">
        <ele>662</ele>
        <time>2019-07-31T14:35:05Z</time>
      </trkpt>
      <trkpt lat="43.81301" lon="6.13781">
        <ele>662</ele>
        <time>2019-07-31T14:35:10Z</time>
      </trkpt>
      <trkpt lat="43.81349" lon="6.13799">
        <ele>662</ele>
        <time>2019-07-31T14:35:19Z</time>
      </trkpt>
      <trkpt lat="43.8141" lon="6.13818">
        <ele>660</ele>
        <time>2019-07-31T14:35:30Z</time>
      </trkpt>
      <trkpt lat="43.81425" lon="6.13814">
        <ele>658</ele>
        <time>2019-07-31T14:35:33Z</time>
      </trkpt>
      <trkpt lat="43.81491" lon="6.13773">
        <ele>653</ele>
        <time>2019-07-31T14:35:46Z</time>
      </trkpt>
      <trkpt lat="43.81568" lon="6.13708">
        <ele>647</ele>
        <time>2019-07-31T14:36:02Z</time>
      </trkpt>
      <trkpt lat="43.81598" lon="6.13658">
        <ele>646</ele>
        <time>2019-07-31T14:36:10Z</time>
      </trkpt>
      <trkpt lat="43.81612" lon="6.13615">
        <ele>643</ele>
        <time>2019-07-31T14:36:16Z</time>
      </trkpt>
      <trkpt lat="43.81603" lon="6.1356">
        <ele>646</ele>
        <time>2019-07-31T14:36:23Z</time>
      </trkpt>
      <trkpt lat="43.81609" lon="6.13525">
        <ele>646</ele>
        <time>2019-07-31T14:36:28Z</time>
      </trkpt>
      <trkpt lat="43.81619" lon="6.13511">
        <ele>644</ele>
        <time>2019-07-31T14:36:30Z</time>
      </trkpt>
      <trkpt lat="43.81659" lon="6.13484">
        <ele>639</ele>
        <time>2019-07-31T14:36:38Z</time>
      </trkpt>
      <trkpt lat="43.81683" lon="6.13459">
        <ele>636</ele>
        <time>2019-07-31T14:36:44Z</time>
      </trkpt>
      <trkpt lat="43.81701" lon="6.13387">
        <ele>636</ele>
        <time>2019-07-31T14:36:53Z</time>
      </trkpt>
      <trkpt lat="43.81716" lon="6.13359">
        <ele>634</ele>
        <time>2019-07-31T14:36:58Z</time>
      </trkpt>
      <trkpt lat="43.81784" lon="6.13278">
        <ele>629</ele>
        <time>2019-07-31T14:37:14Z</time>
      </trkpt>
      <trkpt lat="43.81846" lon="6.1322">
        <ele>626</ele>
        <time>2019-07-31T14:37:27Z</time>
      </trkpt>
      <trkpt lat="43.81935" lon="6.13173">
        <ele>617</ele>
        <time>2019-07-31T14:37:44Z</time>
      </trkpt>
      <trkpt lat="43.82065" lon="6.13059">
        <ele>606</ele>
        <time>2019-07-31T14:38:12Z</time>
      </trkpt>
      <trkpt lat="43.8213" lon="6.12998">
        <ele>602</ele>
        <time>2019-07-31T14:38:25Z</time>
      </trkpt>
      <trkpt lat="43.82198" lon="6.12956">
        <ele>597</ele>
        <time>2019-07-31T14:38:39Z</time>
      </trkpt>
      <trkpt lat="43.82217" lon="6.12949">
        <ele>596</ele>
        <time>2019-07-31T14:38:42Z</time>
      </trkpt>
      <trkpt lat="43.82238" lon="6.12965">
        <ele>595</ele>
        <time>2019-07-31T14:38:46Z</time>
      </trkpt>
      <trkpt lat="43.82247" lon="6.12964">
        <ele>595</ele>
        <time>2019-07-31T14:38:48Z</time>
      </trkpt>
      <trkpt lat="43.82302" lon="6.12916">
        <ele>592</ele>
        <time>2019-07-31T14:39:00Z</time>
      </trkpt>
      <trkpt lat="43.8233" lon="6.12895">
        <ele>591</ele>
        <time>2019-07-31T14:39:05Z</time>
      </trkpt>
      <trkpt lat="43.82348" lon="6.12886">
        <ele>590</ele>
        <time>2019-07-31T14:39:09Z</time>
      </trkpt>
      <trkpt lat="43.82391" lon="6.12872">
        <ele>588</ele>
        <time>2019-07-31T14:39:17Z</time>
      </trkpt>
      <trkpt lat="43.82412" lon="6.12868">
        <ele>588</ele>
        <time>2019-07-31T14:39:20Z</time>
      </trkpt>
      <trkpt lat="43.82432" lon="6.12869">
        <ele>588</ele>
        <time>2019-07-31T14:39:24Z</time>
      </trkpt>
      <trkpt lat="43.82475" lon="6.12876">
        <ele>590</ele>
        <time>2019-07-31T14:39:32Z</time>
      </trkpt>
      <trkpt lat="43.82492" lon="6.12886">
        <ele>591</ele>
        <time>2019-07-31T14:39:35Z</time>
      </trkpt>
      <trkpt lat="43.82507" lon="6.12913">
        <ele>591</ele>
        <time>2019-07-31T14:39:39Z</time>
      </trkpt>
      <trkpt lat="43.82534" lon="6.12946">
        <ele>592</ele>
        <time>2019-07-31T14:39:46Z</time>
      </trkpt>
      <trkpt lat="43.82574" lon="6.12983">
        <ele>595</ele>
        <time>2019-07-31T14:39:54Z</time>
      </trkpt>
      <trkpt lat="43.82586" lon="6.12988">
        <ele>596</ele>
        <time>2019-07-31T14:39:56Z</time>
      </trkpt>
      <trkpt lat="43.82626" lon="6.12922">
        <ele>590</ele>
        <time>2019-07-31T14:40:08Z</time>
      </trkpt>
      <trkpt lat="43.82647" lon="6.12906">
        <ele>590</ele>
        <time>2019-07-31T14:40:12Z</time>
      </trkpt>
      <trkpt lat="43.82684" lon="6.12893">
        <ele>587</ele>
        <time>2019-07-31T14:40:19Z</time>
      </trkpt>
      <trkpt lat="43.82674" lon="6.12851">
        <ele>586</ele>
        <time>2019-07-31T14:40:24Z</time>
      </trkpt>
      <trkpt lat="43.82631" lon="6.12757">
        <ele>583</ele>
        <time>2019-07-31T14:40:39Z</time>
      </trkpt>
      <trkpt lat="43.82603" lon="6.12675">
        <ele>581</ele>
        <time>2019-07-31T14:40:50Z</time>
      </trkpt>
      <trkpt lat="43.82585" lon="6.12639">
        <ele>580</ele>
        <time>2019-07-31T14:40:56Z</time>
      </trkpt>
      <trkpt lat="43.82518" lon="6.12547">
        <ele>575</ele>
        <time>2019-07-31T14:41:13Z</time>
      </trkpt>
      <trkpt lat="43.82479" lon="6.12503">
        <ele>576</ele>
        <time>2019-07-31T14:41:22Z</time>
      </trkpt>
      <trkpt lat="43.82449" lon="6.12459">
        <ele>575</ele>
        <time>2019-07-31T14:41:29Z</time>
      </trkpt>
      <trkpt lat="43.82385" lon="6.12348">
        <ele>571</ele>
        <time>2019-07-31T14:41:48Z</time>
      </trkpt>
      <trkpt lat="43.82248" lon="6.12095">
        <ele>563</ele>
        <time>2019-07-31T14:42:28Z</time>
      </trkpt>
      <trkpt lat="43.82232" lon="6.12059">
        <ele>563</ele>
        <time>2019-07-31T14:42:34Z</time>
      </trkpt>
      <trkpt lat="43.82226" lon="6.12032">
        <ele>562</ele>
        <time>2019-07-31T14:42:37Z</time>
      </trkpt>
      <trkpt lat="43.82225" lon="6.12001">
        <ele>562</ele>
        <time>2019-07-31T14:42:41Z</time>
      </trkpt>
      <trkpt lat="43.82231" lon="6.11932">
        <ele>562</ele>
        <time>2019-07-31T14:42:50Z</time>
      </trkpt>
      <trkpt lat="43.82229" lon="6.11904">
        <ele>562</ele>
        <time>2019-07-31T14:42:54Z</time>
      </trkpt>
      <trkpt lat="43.82214" lon="6.11825">
        <ele>563</ele>
        <time>2019-07-31T14:43:04Z</time>
      </trkpt>
      <trkpt lat="43.82132" lon="6.11494">
        <ele>567</ele>
        <time>2019-07-31T14:43:49Z</time>
      </trkpt>
      <trkpt lat="43.82081" lon="6.11334">
        <ele>567</ele>
        <time>2019-07-31T14:44:12Z</time>
      </trkpt>
      <trkpt lat="43.8207" lon="6.11287">
        <ele>568</ele>
        <time>2019-07-31T14:44:18Z</time>
      </trkpt>
      <trkpt lat="43.82038" lon="6.11053">
        <ele>562</ele>
        <time>2019-07-31T14:44:49Z</time>
      </trkpt>
      <trkpt lat="43.81974" lon="6.10819">
        <ele>561</ele>
        <time>2019-07-31T14:45:21Z</time>
      </trkpt>
      <trkpt lat="43.81953" lon="6.10579">
        <ele>558</ele>
        <time>2019-07-31T14:45:52Z</time>
      </trkpt>
      <trkpt lat="43.81942" lon="6.10508">
        <ele>556</ele>
        <time>2019-07-31T14:46:01Z</time>
      </trkpt>
      <trkpt lat="43.81931" lon="6.10459">
        <ele>556</ele>
        <time>2019-07-31T14:46:08Z</time>
      </trkpt>
      <trkpt lat="43.81897" lon="6.10352">
        <ele>554</ele>
        <time>2019-07-31T14:46:23Z</time>
      </trkpt>
      <trkpt lat="43.81814" lon="6.1003">
        <ele>537</ele>
        <time>2019-07-31T14:47:07Z</time>
      </trkpt>
      <trkpt lat="43.8181" lon="6.09968">
        <ele>536</ele>
        <time>2019-07-31T14:47:15Z</time>
      </trkpt>
      <trkpt lat="43.81809" lon="6.09812">
        <ele>536</ele>
        <time>2019-07-31T14:47:35Z</time>
      </trkpt>
      <trkpt lat="43.818" lon="6.0964">
        <ele>537</ele>
        <time>2019-07-31T14:47:57Z</time>
      </trkpt>
      <trkpt lat="43.81794" lon="6.09609">
        <ele>536</ele>
        <time>2019-07-31T14:48:01Z</time>
      </trkpt>
      <trkpt lat="43.81794" lon="6.09587">
        <ele>536</ele>
        <time>2019-07-31T14:48:04Z</time>
      </trkpt>
      <trkpt lat="43.81802" lon="6.09555">
        <ele>537</ele>
        <time>2019-07-31T14:48:08Z</time>
      </trkpt>
      <trkpt lat="43.81802" lon="6.09537">
        <ele>537</ele>
        <time>2019-07-31T14:48:10Z</time>
      </trkpt>
      <trkpt lat="43.81788" lon="6.09526">
        <ele>535</ele>
        <time>2019-07-31T14:48:13Z</time>
      </trkpt>
      <trkpt lat="43.8177" lon="6.09491">
        <ele>532</ele>
        <time>2019-07-31T14:48:19Z</time>
      </trkpt>
      <trkpt lat="43.81748" lon="6.09433">
        <ele>530</ele>
        <time>2019-07-31T14:48:27Z</time>
      </trkpt>
      <trkpt lat="43.81725" lon="6.09392">
        <ele>529</ele>
        <time>2019-07-31T14:48:34Z</time>
      </trkpt>
      <trkpt lat="43.81715" lon="6.09337">
        <ele>529</ele>
        <time>2019-07-31T14:48:41Z</time>
      </trkpt>
      <trkpt lat="43.81715" lon="6.09327">
        <ele>529</ele>
        <time>2019-07-31T14:48:42Z</time>
      </trkpt>
      <trkpt lat="43.81718" lon="6.09303">
        <ele>529</ele>
        <time>2019-07-31T14:48:45Z</time>
      </trkpt>
      <trkpt lat="43.81738" lon="6.09208">
        <ele>528</ele>
        <time>2019-07-31T14:48:58Z</time>
      </trkpt>
      <trkpt lat="43.81701" lon="6.09194">
        <ele>525</ele>
        <time>2019-07-31T14:49:05Z</time>
      </trkpt>
      <trkpt lat="43.817" lon="6.09202">
        <ele>525</ele>
        <time>2019-07-31T14:49:06Z</time>
      </trkpt>
    </trkseg>
  </trk>
</gpx>